Wind From: 11-12-2017 04:25 Until: 16:00 warning for: Wind Level: Orange info button

Power and phone distribution networks may be disrupted for relatively long periods., Roofs and chimneys can be damaged. , Tree branches may break. , Vehicles can be deported. , Traffic may be disrupted, particularly on secondary roads in forest areas. Limit your trips. , Limit your speed in highway driving, especially if you drive a vehicle or hitch sensitive to wind. , Do not go for walks in forests or along the coast., In town, be vigilant against possible falling objects., Do not work on roofs and do not touch any electrical line fallen on the ground., Store or secure sensitive objects to wind or likely to be damaged., Always install power generators outside buildings. 


Meteo18 Weather Cam more information Meteo18 Weather Cam


Thunder radar more information blitzortung!


Rain radar more information rain snow radar


Visit our other weather sites:

Template documentation
and downloads

And another site



Weather Underground History page Text

Daily Summary for April 30, 2017 Units:  English    Metric   Both
« Previous Day
Next Day »
Daily Weekly Monthly Yearly Custom
  High: Low: Average:
Temperature: 64.9 °F 40.5 °F 51.4 °F
Dew Point: 49.3 °F 33.1 °F 40.5 °F
Humidity: 94 % 43 % 68 %
Wind Speed: 22 mph 0 mph 3.9 mph
Wind Gust: 36 mph - -
Wind:- - SSE
Pressure: 29.8 in 29.6 in -
Precipitation: 0.59 in    
Historical Graphs
 
 
Tabular Data for April 30, 2017
Time Temperature Dew Point Pressure Wind Wind Speed Wind Gust Humidity Rainfall Rate (Hourly)
00:02 48.9 °F 35.6 °F 29.8 in NE 1 mph 3 mph 60 % 0 in
00:07 48.9 °F 35.6 °F 29.8 in NE 1 mph 4 mph 60 % 0 in
00:12 48.7 °F 35.4 °F 29.8 in NE 1 mph 4 mph 60 % 0 in
00:17 48.7 °F 35.4 °F 29.8 in NE 2 mph 4 mph 60 % 0 in
00:22 48.9 °F 35.6 °F 29.8 in NE 2 mph 4 mph 60 % 0 in
00:27 48.9 °F 35.2 °F 29.8 in NE 1 mph 3 mph 59 % 0 in
00:32 48.7 °F 35.4 °F 29.8 in NE 2 mph 3 mph 60 % 0 in
00:42 48.6 °F 35.2 °F 29.8 in NNE 2 mph 3 mph 60 % 0 in
00:47 48.4 °F 35.1 °F 29.8 in NE 2 mph 3 mph 60 % 0 in
00:52 48.4 °F 35.6 °F 29.8 in North 1 mph 3 mph 61 % 0 in
00:57 47.5 °F 35.1 °F 29.8 in WNW 1 mph 3 mph 62 % 0 in
01:02 46.6 °F 35.4 °F 29.8 in Calm   3 mph 65 % 0 in
01:07 46.4 °F 35.2 °F 29.8 in NNW 1 mph 3 mph 65 % 0 in
01:12 46.9 °F 35.4 °F 29.8 in North 1 mph 3 mph 64 % 0 in
01:17 46.9 °F 35.1 °F 29.8 in Calm   2 mph 63 % 0 in
01:22 45.9 °F 35.1 °F 29.8 in WNW 1 mph 2 mph 66 % 0 in
01:27 45.7 °F 35.4 °F 29.8 in Calm   2 mph 67 % 0 in
01:32 46.8 °F 35.6 °F 29.8 in Calm   2 mph 65 % 0 in
01:37 46.8 °F 35.2 °F 29.8 in Calm   2 mph 64 % 0 in
01:42 46.8 °F 35.6 °F 29.8 in Calm   2 mph 65 % 0 in
01:47 46.6 °F 35.4 °F 29.8 in Calm   1 mph 65 % 0 in
01:52 47.1 °F 36 °F 29.8 in Calm   1 mph 65 % 0 in
02:02 47.3 °F 35.4 °F 29.8 in Calm   1 mph 63 % 0 in
02:12 46.2 °F 35.1 °F 29.8 in Calm   1 mph 65 % 0 in
02:17 45.7 °F 35.4 °F 29.8 in Calm     67 % 0 in
02:22 46.2 °F 36 °F 29.8 in Calm   2 mph 67 % 0 in
02:32 46.9 °F 35.4 °F 29.8 in SSW 1 mph 2 mph 64 % 0 in
02:42 46.2 °F 35.4 °F 29.8 in Calm   3 mph 66 % 0 in
02:47 46.4 °F 35.2 °F 29.8 in Calm   1 mph 65 % 0 in
02:52 46.2 °F 35.4 °F 29.8 in Calm   2 mph 66 % 0 in
02:57 45.9 °F 35.1 °F 29.8 in Calm   2 mph 66 % 0 in
03:02 45.7 °F 35.4 °F 29.8 in Calm   2 mph 67 % 0 in
03:12 45.7 °F 35.4 °F 29.8 in Calm   1 mph 67 % 0 in
03:17 45.7 °F 35.8 °F 29.8 in Calm   1 mph 68 % 0 in
03:22 45.9 °F 35.6 °F 29.8 in Calm   1 mph 67 % 0 in
03:32 45.7 °F 35.4 °F 29.8 in Calm   1 mph 67 % 0 in
03:37 45 °F 35.1 °F 29.8 in Calm   1 mph 68 % 0 in
03:42 44.6 °F 35.1 °F 29.8 in Calm   1 mph 69 % 0 in
03:47 44.4 °F 35.2 °F 29.8 in Calm   1 mph 70 % 0 in
03:52 44.2 °F 35.1 °F 29.8 in Calm   1 mph 70 % 0 in
03:57 44.4 °F 35.2 °F 29.8 in Calm   1 mph 70 % 0 in
04:02 44.4 °F 35.2 °F 29.8 in Calm   1 mph 70 % 0 in
04:12 43 °F 35.2 °F 29.8 in Calm   1 mph 74 % 0 in
04:17 43 °F 35.6 °F 29.8 in Calm   2 mph 75 % 0 in
04:22 43.5 °F 35.4 °F 29.8 in Calm   2 mph 73 % 0 in
04:32 43.9 °F 35.4 °F 29.8 in Calm   1 mph 72 % 0 in
04:42 43.5 °F 35.1 °F 29.8 in Calm     72 % 0 in
04:52 43 °F 34.9 °F 29.8 in Calm   1 mph 73 % 0 in
04:57 43.5 °F 34.7 °F 29.8 in Calm   1 mph 71 % 0 in
05:02 43.9 °F 34.7 °F 29.8 in North 1 mph 1 mph 70 % 0 in
05:12 44.2 °F 34.7 °F 29.8 in Calm   2 mph 69 % 0 in
05:17 43.7 °F 34.5 °F 29.8 in Calm   2 mph 70 % 0 in
05:22 43.2 °F 34.3 °F 29.8 in North 1 mph 1 mph 71 % 0 in
05:27 43.2 °F 34.7 °F 29.8 in Calm   1 mph 72 % 0 in
05:32 43 °F 34.5 °F 29.8 in Calm   1 mph 72 % 0 in
05:37 42.8 °F 34.3 °F 29.8 in NW 1 mph 1 mph 72 % 0 in
05:42 42.3 °F 34.2 °F 29.8 in WNW 1 mph   73 % 0 in
05:47 42.3 °F 34.2 °F 29.8 in Calm     73 % 0 in
05:52 43 °F 34.2 °F 29.8 in Calm   2 mph 71 % 0 in
05:57 43 °F 34.2 °F 29.8 in Calm   2 mph 71 % 0 in
06:02 43.2 °F 34 °F 29.8 in NNW 1 mph 1 mph 70 % 0 in
06:12 43.5 °F 34 °F 29.8 in North 1 mph 1 mph 69 % 0 in
06:17 43.3 °F 33.8 °F 29.8 in North 2 mph 2 mph 69 % 0 in
06:22 43.3 °F 33.4 °F 29.8 in North 2 mph 2 mph 68 % 0 in
06:32 41.9 °F 33.3 °F 29.8 in Calm   2 mph 71 % 0 in
06:37 41.5 °F 33.3 °F 29.8 in Calm   2 mph 72 % 0 in
06:42 41.4 °F 33.4 °F 29.8 in Calm   2 mph 73 % 0 in
06:47 41.7 °F 33.4 °F 29.8 in Calm   2 mph 72 % 0 in
06:52 41.9 °F 33.3 °F 29.8 in Calm   2 mph 71 % 0 in
07:02 40.5 °F 33.1 °F 29.8 in Calm     75 % 0 in
07:12 40.6 °F 33.6 °F 29.8 in Calm     76 % 0 in
07:17 41.7 °F 33.6 °F 29.8 in Calm     73 % 0 in
07:22 42.6 °F 33.4 °F 29.8 in Calm     70 % 0 in
07:27 43 °F 33.4 °F 29.8 in Calm     69 % 0 in
07:32 43.3 °F 33.8 °F 29.8 in Calm     69 % 0 in
07:42 44.2 °F 34 °F 29.8 in Calm     67 % 0 in
07:47 45.1 °F 34.2 °F 29.8 in Calm     65 % 0 in
07:52 46.2 °F 34.7 °F 29.8 in Calm     64 % 0 in
07:57 47.1 °F 34.7 °F 29.7 in Calm     62 % 0 in
08:02 48.2 °F 35.4 °F 29.8 in Calm     61 % 0 in
08:12 48.4 °F 35.1 °F 29.8 in Calm   3 mph 60 % 0 in
08:17 48.4 °F 35.1 °F 29.8 in SE 1 mph 3 mph 60 % 0 in
08:22 48.6 °F 35.8 °F 29.7 in Calm   3 mph 61 % 0 in
08:32 49.8 °F 35.6 °F 29.7 in Calm   2 mph 58 % 0 in
08:42 51.3 °F 35.2 °F 29.7 in Calm     54 % 0 in
08:47 51.3 °F 35.2 °F 29.7 in SSE 3 mph   54 % 0 in
08:52 51.1 °F 35.1 °F 29.7 in SE 3 mph 6 mph 54 % 0 in
08:57 51.3 °F 35.6 °F 29.7 in SE 2 mph 6 mph 55 % 0 in
09:02 51.4 °F 34.9 °F 29.7 in SE 4 mph 8 mph 53 % 0 in
09:12 52 °F 34.3 °F 29.7 in East 2 mph 11 mph 51 % 0 in
09:17 52.5 °F 34.9 °F 29.7 in SE 4 mph 11 mph 51 % 0 in
09:22 52.9 °F 34.2 °F 29.7 in East 5 mph 11 mph 49 % 0 in
09:32 53.4 °F 34.7 °F 29.7 in SSE 5 mph 12 mph 49 % 0 in
09:42 54.1 °F 34.9 °F 29.7 in South 4 mph 12 mph 48 % 0 in
09:52 54.9 °F 35.1 °F 29.7 in WSW 2 mph 14 mph 47 % 0 in
09:57 55.2 °F 35.4 °F 29.7 in SE 1 mph 14 mph 47 % 0 in
10:02 55.8 °F 35.2 °F 29.7 in East 7 mph 14 mph 46 % 0 in
10:12 56.3 °F 35.8 °F 29.7 in ESE 7 mph 14 mph 46 % 0 in
10:17 56.7 °F 36.1 °F 29.7 in SE 8 mph 14 mph 46 % 0 in
10:22 57.2 °F 36 °F 29.7 in SE 7 mph 14 mph 45 % 0 in
10:32 57.9 °F 37.8 °F 29.7 in East 5 mph 12 mph 47 % 0 in
10:42 58.8 °F 37.6 °F 29.7 in SE 5 mph 12 mph 45 % 0 in
10:47 59.2 °F 37.9 °F 29.7 in East 8 mph 12 mph 45 % 0 in
10:52 59.7 °F 37.2 °F 29.7 in SSE 3 mph 12 mph 43 % 0 in
10:57 60.3 °F 38.8 °F 29.7 in SSE 2 mph 12 mph 45 % 0 in
11:02 60.1 °F 38.1 °F 29.7 in SW 7 mph 12 mph 44 % 0 in
11:12 60.3 °F 38.3 °F 29.7 in ESE 9 mph 13 mph 44 % 0 in
11:17 60.3 °F 38.8 °F 29.7 in SE 10 mph 13 mph 45 % 0 in
11:22 60.3 °F 38.3 °F 29.7 in SSE 4 mph 17 mph 44 % 0 in
11:32 61.5 °F 40.5 °F 29.7 in South 5 mph 14 mph 46 % 0 in
11:37 62.1 °F 39.4 °F 29.7 in SE 4 mph 14 mph 43 % 0 in
11:42 62.4 °F 39.6 °F 29.7 in SE 4 mph 14 mph 43 % 0 in
11:52 62.6 °F 39.7 °F 29.7 in ESE 7 mph 16 mph 43 % 0 in
11:57 63.3 °F 40.5 °F 29.7 in South 4 mph 16 mph 43 % 0 in
12:02 63.1 °F 40.8 °F 29.7 in SSW 4 mph 14 mph 44 % 0 in
12:12 63.1 °F 41.5 °F 29.7 in ESE 6 mph 16 mph 45 % 0 in
12:17 63.9 °F 41.5 °F 29.7 in SE 9 mph 16 mph 44 % 0 in
12:22 63.5 °F 41.7 °F 29.7 in East 7 mph 16 mph 45 % 0 in
12:32 64.2 °F 42.4 °F 29.7 in SE 11 mph 17 mph 45 % 0 in
12:37 64.2 °F 43 °F 29.7 in ESE 12 mph 17 mph 46 % 0 in
12:42 64.6 °F 42.8 °F 29.7 in SW 3 mph 17 mph 45 % 0 in
12:47 64.9 °F 43.7 °F 29.7 in East 8 mph 17 mph 46 % 0 in
12:52 64.8 °F 43.5 °F 29.7 in SE 11 mph 20 mph 46 % 0 in
13:02 63.9 °F 43.2 °F 29.7 in South 8 mph 20 mph 47 % 0 in
13:12 63.7 °F 43.7 °F 29.7 in South 9 mph 16 mph 48 % 0 in
13:17 63.7 °F 44.2 °F 29.6 in SE 5 mph 16 mph 49 % 0 in
13:22 63.7 °F 44.2 °F 29.6 in SE 5 mph 16 mph 49 % 0 in
13:32 63 °F 44.1 °F 29.7 in SSE 2 mph 16 mph 50 % 0 in
13:37 62.8 °F 43.9 °F 29.7 in East 9 mph 16 mph 50 % 0 in
13:42 62.2 °F 44.4 °F 29.6 in SSE 9 mph 16 mph 52 % 0 in
13:47 61.9 °F 45.5 °F 29.7 in South 5 mph 16 mph 55 % 0 in
13:52 61.5 °F 46.2 °F 29.7 in SE 7 mph 13 mph 57 % 0 in
13:57 61.3 °F 46 °F 29.6 in South 3 mph 13 mph 57 % 0 in
14:02 61.3 °F 46.4 °F 29.6 in SSE 2 mph 13 mph 58 % 0 in
14:12 61.3 °F 47.3 °F 29.6 in ESE 7 mph 11 mph 60 % 0 in
14:17 61.3 °F 48.6 °F 29.6 in ESE 4 mph 8 mph 63 % 0 in
14:22 61.5 °F 48.7 °F 29.6 in East 2 mph 8 mph 63 % 0 in
14:27 61.5 °F 47.5 °F 29.6 in SE 3 mph 7 mph 60 % 0 in
14:32 61.5 °F 48.7 °F 29.6 in East 5 mph 8 mph 63 % 0 in
14:42 61.5 °F 48 °F 29.6 in ESE 2 mph 8 mph 61 % 0 in
14:47 61.9 °F 48.2 °F 29.6 in East 4 mph 10 mph 61 % 0 in
14:52 62.4 °F 48.4 °F 29.6 in SE 7 mph 11 mph 60 % 0 in
14:57 62.2 °F 48.2 °F 29.6 in SE 5 mph 12 mph 60 % 0 in
15:02 62.2 °F 47.7 °F 29.6 in ESE 3 mph 12 mph 59 % 0 in
15:12 62.2 °F 48.6 °F 29.6 in ENE 3 mph 12 mph 61 % 0 in
15:17 62.4 °F 48.4 °F 29.6 in ESE 3 mph 12 mph 60 % 0 in
15:22 62.4 °F 48.7 °F 29.6 in SE 3 mph 12 mph 61 % 0 in
15:32 62.1 °F 48.4 °F 29.6 in East 2 mph 11 mph 61 % 0 in
15:42 62.1 °F 48 °F 29.6 in ENE 2 mph 13 mph 60 % 0 in
15:52 62.4 °F 48.4 °F 29.6 in SSE 3 mph 12 mph 60 % 0 in
16:02 62.8 °F 47.8 °F 29.6 in SSE 7 mph 17 mph 58 % 0 in
16:12 63.7 °F 47.7 °F 29.6 in ESE 10 mph 17 mph 56 % 0 in
16:17 63.7 °F 46.8 °F 29.6 in SE 14 mph 17 mph 54 % 0 in
16:22 63.9 °F 46.4 °F 29.6 in SSW 11 mph 17 mph 53 % 0 in
16:32 64.4 °F 46.9 °F 29.6 in SE 7 mph 24 mph 53 % 0 in
16:37 64.8 °F 46.8 °F 29.6 in ESE 9 mph 24 mph 52 % 0 in
16:47 64.9 °F 46.4 °F 29.6 in East 6 mph 16 mph 51 % 0 in
16:52 64.8 °F 46.2 °F 29.6 in SW 6 mph 18 mph 51 % 0 in
16:57 64.8 °F 46.2 °F 29.6 in SE 10 mph 22 mph 51 % 0 in
17:02 64.6 °F 46 °F 29.6 in SSW 13 mph 22 mph 51 % 0 in
17:07 64.6 °F 46 °F 29.6 in East 12 mph 23 mph 51 % 0 in
17:12 64.4 °F 46.4 °F 29.6 in SSW 8 mph 23 mph 52 % 0 in
17:17 64.4 °F 46.4 °F 29.6 in SE 10 mph 23 mph 52 % 0 in
17:22 64.2 °F 46.8 °F 29.6 in SW 5 mph 18 mph 53 % 0 in
17:27 63.9 °F 47.3 °F 29.6 in South 12 mph 16 mph 55 % 0 in
17:32 60.6 °F 48.7 °F 29.6 in SW 17 mph 17 mph 65 % 0 in
17:42 53.1 °F 49.3 °F 29.6 in West 22 mph 26 mph 87 % 0 in
17:47 52 °F 48.9 °F 29.6 in WSW 7 mph 36 mph 89 % 0.02 in
17:52 51.6 °F 48.7 °F 29.6 in West 9 mph 36 mph 90 % 0.09 in
17:57 51.4 °F 48.6 °F 29.6 in West 10 mph 28 mph 90 % 0.13 in
18:02 51.1 °F 48 °F 29.6 in West 21 mph 24 mph 89 % 0.13 in
18:12 50.4 °F 47.5 °F 29.6 in West 18 mph 25 mph 90 % 0.15 in
18:17 50.2 °F 47.3 °F 29.6 in WSW 4 mph 25 mph 90 % 0.18 in
18:22 50 °F 47.1 °F 29.6 in West 9 mph 25 mph 90 % 0.18 in
18:27 49.8 °F 47.3 °F 29.6 in WSW 9 mph 21 mph 91 % 0.2 in
18:32 49.8 °F 47.3 °F 29.6 in West 8 mph 21 mph 91 % 0.2 in
18:42 49.6 °F 47.5 °F 29.6 in SW 6 mph 14 mph 92 % 0.23 in
18:52 49.6 °F 47.7 °F 29.6 in West 4 mph 12 mph 93 % 0.17 in
18:57 49.5 °F 47.5 °F 29.6 in West 3 mph 11 mph 93 % 0.17 in
19:02 49.5 °F 47.5 °F 29.6 in WSW 4 mph 9 mph 93 % 0.17 in
19:12 49.3 °F 47.3 °F 29.6 in WSW 4 mph 9 mph 93 % 0.18 in
19:22 49.1 °F 47.1 °F 29.6 in SW 5 mph 12 mph 93 % 0.19 in
19:32 48.9 °F 46.9 °F 29.7 in SW 10 mph 11 mph 93 % 0.2 in
19:42 48.4 °F 46.2 °F 29.7 in South 11 mph 12 mph 92 % 0.22 in
19:47 48 °F 45.9 °F 29.7 in WSW 4 mph 13 mph 92 % 0.22 in
19:52 47.7 °F 45.5 °F 29.7 in SW 6 mph 13 mph 92 % 0.2 in
19:57 47.3 °F 45.1 °F 29.7 in SW 5 mph 12 mph 92 % 0.18 in
20:02 47.1 °F 45.1 °F 29.7 in WSW 9 mph 14 mph 93 % 0.17 in
20:12 47.1 °F 45.1 °F 29.7 in SW 3 mph 15 mph 93 % 0.15 in
20:17 46.9 °F 45 °F 29.7 in SW 5 mph 15 mph 93 % 0.13 in
20:22 46.9 °F 45 °F 29.7 in South 4 mph 12 mph 93 % 0.13 in
20:32 46.8 °F 45.1 °F 29.7 in SSW 8 mph 12 mph 94 % 0.12 in
20:42 46.8 °F 45.1 °F 29.7 in SW 7 mph 11 mph 94 % 0.1 in
20:47 46.6 °F 45 °F 29.7 in SSW 3 mph 11 mph 94 % 0.09 in
20:52 46.6 °F 45 °F 29.7 in SSW 4 mph 9 mph 94 % 0.09 in
20:57 46.6 °F 45 °F 29.7 in South 3 mph 9 mph 94 % 0.08 in
21:02 46.6 °F 45 °F 29.7 in SW 3 mph 9 mph 94 % 0.08 in
21:12 46.4 °F 44.8 °F 29.7 in South 5 mph 8 mph 94 % 0.07 in
21:17 46.2 °F 44.6 °F 29.7 in SSW 1 mph 8 mph 94 % 0.05 in
21:22 46.2 °F 44.6 °F 29.7 in SSW 2 mph 8 mph 94 % 0.04 in
21:32 46.2 °F 44.6 °F 29.7 in South 3 mph 6 mph 94 % 0.02 in
21:42 46 °F 44.4 °F 29.7 in SE 2 mph 6 mph 94 % 0.02 in
21:52 45.9 °F 44.2 °F 29.7 in SSE 1 mph 6 mph 94 % 0.03 in
21:57 45.9 °F 44.2 °F 29.7 in SW 1 mph 5 mph 94 % 0.02 in
22:02 45.9 °F 44.2 °F 29.7 in South 3 mph 4 mph 94 % 0.02 in
22:12 45.9 °F 44.2 °F 29.7 in South 5 mph 9 mph 94 % 0.02 in
22:17 45.9 °F 44.2 °F 29.7 in SSW 4 mph 10 mph 94 % 0.02 in
22:22 45.9 °F 43.9 °F 29.7 in SSW 6 mph 11 mph 93 % 0.02 in
22:32 45.9 °F 43.7 °F 29.7 in SW 9 mph 14 mph 92 % 0.02 in
22:42 45.9 °F 43.7 °F 29.8 in South 7 mph 14 mph 92 % 0.02 in
22:47 45.9 °F 43.7 °F 29.8 in SSW 5 mph 15 mph 92 % 0.01 in
22:52 45.7 °F 43.5 °F 29.7 in SE 7 mph 15 mph 92 % 0.01 in
22:57 45.7 °F 43.5 °F 29.7 in SW 4 mph 14 mph 92 % 0.01 in
23:02 45.7 °F 43.5 °F 29.7 in South 5 mph 14 mph 92 % 0.01 in
23:12 45.5 °F 43.3 °F 29.7 in SW 6 mph 14 mph 92 % 0.01 in
23:17 45.3 °F 42.8 °F 29.7 in SSW 6 mph 14 mph 91 % 0.01 in
23:22 45.3 °F 42.8 °F 29.7 in SSW 7 mph 14 mph 91 % 0.01 in
23:27 45.3 °F 42.8 °F 29.7 in South 8 mph 14 mph 91 % 0 in
23:32 45.1 °F 42.6 °F 29.7 in SW 3 mph 13 mph 91 % 0 in
23:37 45 °F 42.4 °F 29.7 in SW 4 mph 12 mph 91 % 0 in
23:42 45 °F 42.4 °F 29.7 in SSW 6 mph 12 mph 91 % 0 in
23:52 44.8 °F 42.3 °F 29.7 in SSW 8 mph 11 mph 91 % 0 in
23:57 44.8 °F 42.3 °F 29.8 in SSW 8 mph 10 mph 91 % 0 in
Meteo18
Compliments of Weather Underground - 4 mb

Script developed by  Jim McMurry - jmcmurry@mwt.net Adapted for the template by  Wim van der Kuil - Leuven-Template.eu

You find our weather info also at:

European Weather Network

Weather Underground

Equipment we use:

Weather-station
Davis Vue

Weather-program
Meteohub

Weather-server
Raspberry PI 2 B+

Provider
1 and 1

Davis Vue

Meteohub

Raspberry PI 2 B+

1 and 1